Time,TemperatureF,DewpointF,PressureIn,WindDirection,WindDirectionDegrees,WindSpeedMPH,WindSpeedGustMPH,Humidity,HourlyPrecipIn,Conditions,Clouds,dailyrainin,SoftwareType,DateUTC
2013-08-23 00:01:00,77.6,-99.9,30.03,North,-999,0.0,0.0,-999,0.08,,,-99.99,WeatherLink 5.5,2013-08-23 04:01:00,
2013-08-23 00:10:00,77.7,77.7,30.02,North,-999,0.0,0.0,100,0.06,,,-99.99,WeatherLink 5.5,2013-08-23 04:10:00,
2013-08-23 00:16:00,77.7,-99.9,30.02,North,-999,0.0,0.0,-999,0.00,,,-99.99,WeatherLink 5.5,2013-08-23 04:16:00,
2013-08-23 00:20:00,77.9,77.9,30.02,North,-999,0.0,0.0,100,0.00,,,-99.99,WeatherLink 5.5,2013-08-23 04:20:00,
2013-08-23 00:26:00,77.9,77.9,30.02,North,-999,0.0,0.0,100,0.00,,,-99.99,WeatherLink 5.5,2013-08-23 04:26:00,
2013-08-23 00:35:00,78.0,-99.9,30.02,North,-999,0.0,0.0,-999,0.00,,,-99.99,WeatherLink 5.5,2013-08-23 04:35:00,
2013-08-23 00:41:00,78.1,-99.9,30.02,North,-999,0.0,0.0,-999,0.00,,,-99.99,WeatherLink 5.5,2013-08-23 04:41:00,
2013-08-23 00:50:00,77.9,-99.9,30.02,North,-999,0.0,0.0,-999,0.00,,,-99.99,WeatherLink 5.5,2013-08-23 04:50:00,
2013-08-23 00:56:00,77.9,77.9,30.01,North,-999,0.0,0.0,100,0.00,,,-99.99,WeatherLink 5.5,2013-08-23 04:56:00,
2013-08-23 01:06:00,77.9,-99.9,30.01,North,-999,0.0,0.0,-999,0.00,,,-99.99,WeatherLink 5.5,2013-08-23 05:06:00,
2013-08-23 01:15:00,78.2,-99.9,30.00,North,-999,0.0,0.0,-999,0.00,,,-99.99,WeatherLink 5.5,2013-08-23 05:15:00,
2013-08-23 01:21:00,78.1,-99.9,30.00,North,-999,0.0,0.0,-999,0.00,,,-99.99,WeatherLink 5.5,2013-08-23 05:21:00,
2013-08-23 01:31:00,78.3,-99.9,30.00,North,-999,0.0,0.0,-999,0.00,,,-99.99,WeatherLink 5.5,2013-08-23 05:31:00,
2013-08-23 01:40:00,78.2,-99.9,30.00,North,-999,0.0,0.0,-999,0.00,,,-99.99,WeatherLink 5.5,2013-08-23 05:40:00,
2013-08-23 01:46:00,78.2,-99.9,30.00,North,-999,0.0,0.0,-999,0.00,,,-99.99,WeatherLink 5.5,2013-08-23 05:46:00,
2013-08-23 01:55:00,78.2,78.2,30.00,North,-999,0.0,0.0,100,0.00,,,-99.99,WeatherLink 5.5,2013-08-23 05:55:00,
2013-08-23 02:01:00,78.2,-99.9,30.00,North,-999,0.0,0.0,-999,0.00,,,-99.99,WeatherLink 5.5,2013-08-23 06:01:00,
2013-08-23 02:10:00,78.2,78.2,30.00,North,-999,0.0,0.0,100,0.00,,,-99.99,WeatherLink 5.5,2013-08-23 06:10:00,
2013-08-23 02:16:00,78.0,-99.9,29.99,North,-999,0.0,0.0,-999,0.00,,,-99.99,WeatherLink 5.5,2013-08-23 06:16:00,
2013-08-23 02:25:00,78.2,-99.9,29.99,North,-999,0.0,0.0,-999,0.00,,,-99.99,WeatherLink 5.5,2013-08-23 06:25:00,
2013-08-23 02:31:00,78.2,-99.9,29.99,North,-999,0.0,0.0,-999,0.00,,,-99.99,WeatherLink 5.5,2013-08-23 06:31:00,
2013-08-23 02:40:00,78.0,-99.9,29.98,North,-999,0.0,0.0,-999,0.00,,,-99.99,WeatherLink 5.5,2013-08-23 06:40:00,
2013-08-23 02:46:00,77.9,-99.9,29.98,North,-999,0.0,0.0,-999,0.00,,,-99.99,WeatherLink 5.5,2013-08-23 06:46:00,
2013-08-23 02:55:00,77.8,-99.9,29.97,North,-999,0.0,0.0,-999,0.00,,,-99.99,WeatherLink 5.5,2013-08-23 06:55:00,
2013-08-23 03:01:00,77.6,-99.9,29.97,North,-999,0.0,0.0,-999,0.00,,,-99.99,WeatherLink 5.5,2013-08-23 07:01:00,
2013-08-23 03:11:00,77.3,-99.9,29.97,North,-999,0.0,0.0,-999,0.00,,,-99.99,WeatherLink 5.5,2013-08-23 07:11:00,
2013-08-23 03:20:00,77.1,-99.9,29.97,North,-999,0.0,0.0,-999,0.00,,,-99.99,WeatherLink 5.5,2013-08-23 07:20:00,
2013-08-23 03:26:00,77.0,-99.9,29.97,North,-999,0.0,0.0,-999,0.00,,,-99.99,WeatherLink 5.5,2013-08-23 07:26:00,
2013-08-23 03:35:00,76.9,-99.9,29.96,North,-999,0.0,0.0,-999,0.00,,,-99.99,WeatherLink 5.5,2013-08-23 07:35:00,
2013-08-23 03:46:00,76.9,-99.9,29.98,North,-999,0.0,0.0,-999,0.00,,,-99.99,WeatherLink 5.5,2013-08-23 07:46:00,
2013-08-23 03:55:00,76.8,-99.9,29.96,North,-999,0.0,0.0,-999,0.00,,,-99.99,WeatherLink 5.5,2013-08-23 07:55:00,
2013-08-23 04:01:00,76.7,-99.9,29.98,North,-999,0.0,0.0,-999,0.00,,,-99.99,WeatherLink 5.5,2013-08-23 08:01:00,
2013-08-23 04:11:00,76.6,71.0,29.98,North,-999,0.0,0.0,83,0.00,,,-99.99,WeatherLink 5.5,2013-08-23 08:11:00,
2013-08-23 04:20:00,76.7,-99.9,29.95,North,-999,0.0,0.0,-999,0.00,,,-99.99,WeatherLink 5.5,2013-08-23 08:20:00,
2013-08-23 04:31:00,76.7,-99.9,29.95,North,-999,0.0,0.0,-999,0.00,,,-99.99,WeatherLink 5.5,2013-08-23 08:31:00,
2013-08-23 04:40:00,76.6,-99.9,29.96,North,-999,0.0,0.0,-999,0.00,,,-99.99,WeatherLink 5.5,2013-08-23 08:40:00,
2013-08-23 04:46:00,76.7,-99.9,29.96,North,-999,0.0,0.0,-999,0.00,,,-99.99,WeatherLink 5.5,2013-08-23 08:46:00,
2013-08-23 04:55:00,76.8,-99.9,29.95,North,-999,0.0,0.0,-999,0.00,,,-99.99,WeatherLink 5.5,2013-08-23 08:55:00,
2013-08-23 05:01:00,76.8,-99.9,29.98,North,-999,0.0,0.0,-999,0.00,,,-99.99,WeatherLink 5.5,2013-08-23 09:01:00,
2013-08-23 05:11:00,77.1,-99.9,29.96,North,-999,0.0,0.0,-999,0.00,,,-99.99,WeatherLink 5.5,2013-08-23 09:11:00,
2013-08-23 05:20:00,77.1,-99.9,29.97,North,-999,0.0,0.0,-999,0.00,,,-99.99,WeatherLink 5.5,2013-08-23 09:20:00,
2013-08-23 05:31:00,77.2,-99.9,29.96,North,-999,0.0,0.0,-999,0.00,,,-99.99,WeatherLink 5.5,2013-08-23 09:31:00,
2013-08-23 05:41:00,77.3,-99.9,29.96,North,-999,0.0,0.0,-999,0.00,,,-99.99,WeatherLink 5.5,2013-08-23 09:41:00,
2013-08-23 05:50:00,77.4,71.1,29.97,North,-999,0.0,0.0,81,0.00,,,-99.99,WeatherLink 5.5,2013-08-23 09:50:00,
2013-08-23 05:56:00,77.5,-99.9,29.95,North,-999,0.0,0.0,-999,0.00,,,-99.99,WeatherLink 5.5,2013-08-23 09:56:00,
2013-08-23 06:06:00,77.5,-99.9,29.96,North,-999,0.0,0.0,-999,0.00,,,-99.99,WeatherLink 5.5,2013-08-23 10:06:00,
2013-08-23 06:15:00,77.5,-99.9,29.95,North,-999,0.0,0.0,-999,0.00,,,-99.99,WeatherLink 5.5,2013-08-23 10:15:00,
2013-08-23 06:21:00,77.4,-99.9,29.96,North,-999,0.0,0.0,-999,0.00,,,-99.99,WeatherLink 5.5,2013-08-23 10:21:00,
2013-08-23 06:30:00,77.3,-99.9,29.96,North,-999,0.0,0.0,-999,0.00,,,-99.99,WeatherLink 5.5,2013-08-23 10:30:00,
2013-08-23 06:41:00,77.2,-99.9,29.96,North,-999,0.0,0.0,-999,0.00,,,-99.99,WeatherLink 5.5,2013-08-23 10:41:00,
2013-08-23 06:51:00,77.0,-99.9,29.95,North,-999,0.0,0.0,-999,0.00,,,-99.99,WeatherLink 5.5,2013-08-23 10:51:00,
2013-08-23 07:00:00,77.0,-99.9,29.96,North,-999,0.0,0.0,-999,0.00,,,-99.99,WeatherLink 5.5,2013-08-23 11:00:00,
2013-08-23 07:06:00,76.9,-99.9,29.96,North,-999,0.0,0.0,-999,0.00,,,-99.99,WeatherLink 5.5,2013-08-23 11:06:00,
2013-08-23 07:16:00,77.1,-99.9,29.96,North,-999,0.0,0.0,-999,0.00,,,-99.99,WeatherLink 5.5,2013-08-23 11:16:00,
2013-08-23 07:25:00,77.2,-99.9,29.98,South,180,0.0,1.0,-999,0.00,,,-99.99,WeatherLink 5.5,2013-08-23 11:25:00,
2013-08-23 07:31:00,77.3,71.0,29.97,North,-999,0.0,0.0,81,0.00,,,-99.99,WeatherLink 5.5,2013-08-23 11:31:00,
2013-08-23 07:41:00,78.0,-99.9,29.98,North,-999,0.0,0.0,-999,0.00,,,-99.99,WeatherLink 5.5,2013-08-23 11:41:00,
2013-08-23 07:50:00,78.8,-99.9,29.98,North,-999,0.0,0.0,-999,0.00,,,-99.99,WeatherLink 5.5,2013-08-23 11:50:00,
2013-08-23 07:56:00,79.4,-99.9,29.98,North,-999,0.0,0.0,-999,0.00,,,-99.99,WeatherLink 5.5,2013-08-23 11:56:00,
2013-08-23 08:05:00,80.2,-99.9,29.98,North,-999,0.0,0.0,-999,0.00,,,-99.99,WeatherLink 5.5,2013-08-23 12:05:00,
2013-08-23 08:11:00,80.7,-99.9,29.99,North,-999,0.0,0.0,-999,0.00,,,-99.99,WeatherLink 5.5,2013-08-23 12:11:00,
2013-08-23 08:20:00,81.1,-99.9,29.98,North,-999,0.0,0.0,-999,0.00,,,-99.99,WeatherLink 5.5,2013-08-23 12:20:00,
2013-08-23 08:26:00,81.6,-99.9,29.99,North,-999,0.0,0.0,-999,0.00,,,-99.99,WeatherLink 5.5,2013-08-23 12:26:00,
2013-08-23 08:36:00,83.0,-99.9,29.99,North,-999,0.0,1.0,-999,0.00,,,-99.99,WeatherLink 5.5,2013-08-23 12:36:00,
2013-08-23 08:46:00,84.1,-99.9,29.99,North,-999,0.0,0.0,-999,0.00,,,-99.99,WeatherLink 5.5,2013-08-23 12:46:00,
2013-08-23 08:55:00,84.8,-99.9,29.99,SE,135,0.0,6.0,-999,0.00,,,-99.99,WeatherLink 5.5,2013-08-23 12:55:00,
2013-08-23 09:01:00,85.3,-99.9,30.00,ESE,112,0.0,7.0,-999,0.00,,,-99.99,WeatherLink 5.5,2013-08-23 13:01:00,
2013-08-23 09:10:00,84.4,-99.9,29.98,ESE,112,1.0,4.0,-999,0.00,,,-99.99,WeatherLink 5.5,2013-08-23 13:10:00,
2013-08-23 09:16:00,83.9,-99.9,30.01,North,-999,0.0,0.0,-999,0.00,,,-99.99,WeatherLink 5.5,2013-08-23 13:16:00,
2013-08-23 09:26:00,84.1,-99.9,30.00,ESE,112,0.0,1.0,-999,0.00,,,-99.99,WeatherLink 5.5,2013-08-23 13:26:00,
2013-08-23 09:36:00,84.9,-99.9,30.03,ESE,112,0.0,1.0,-999,0.00,,,-99.99,WeatherLink 5.5,2013-08-23 13:36:00,
2013-08-23 09:45:00,84.3,-99.9,30.00,North,-999,0.0,1.0,-999,0.00,,,-99.99,WeatherLink 5.5,2013-08-23 13:45:00,
2013-08-23 09:56:00,85.2,-99.9,30.02,East,90,1.0,5.0,-999,0.00,,,-99.99,WeatherLink 5.5,2013-08-23 13:56:00,
2013-08-23 10:05:00,86.7,-99.9,30.00,East,90,1.0,7.0,-999,0.00,,,-99.99,WeatherLink 5.5,2013-08-23 14:05:00,
2013-08-23 10:16:00,87.2,-99.9,30.01,East,90,2.0,8.0,-999,0.00,,,-99.99,WeatherLink 5.5,2013-08-23 14:16:00,
2013-08-23 10:21:00,87.4,-99.9,30.01,ENE,67,1.0,5.0,-999,0.00,,,-99.99,WeatherLink 5.5,2013-08-23 14:21:00,
2013-08-23 10:30:00,87.7,-99.9,30.01,ESE,112,2.0,7.0,-999,0.00,,,-99.99,WeatherLink 5.5,2013-08-23 14:30:00,
2013-08-23 10:36:00,88.1,-99.9,30.01,ESE,112,1.0,9.0,-999,0.00,,,-99.99,WeatherLink 5.5,2013-08-23 14:36:00,
2013-08-23 10:46:00,88.1,88.1,30.01,East,90,1.0,5.0,100,0.00,,,-99.99,WeatherLink 5.5,2013-08-23 14:46:00,
2013-08-23 10:56:00,89.0,89.0,30.01,ENE,67,1.0,7.0,100,0.00,,,-99.99,WeatherLink 5.5,2013-08-23 14:56:00,
2013-08-23 11:05:00,89.1,-99.9,30.01,East,90,2.0,10.0,-999,0.00,,,-99.99,WeatherLink 5.5,2013-08-23 15:05:00,
2013-08-23 11:16:00,89.4,89.4,30.01,ENE,67,2.0,9.0,100,0.00,,,-99.99,WeatherLink 5.5,2013-08-23 15:16:00,
2013-08-23 11:25:00,89.7,89.7,30.01,ESE,112,1.0,7.0,100,0.00,,,-99.99,WeatherLink 5.5,2013-08-23 15:25:00,
2013-08-23 11:36:00,90.1,90.1,30.02,ESE,112,4.0,9.0,100,0.00,,,-99.99,WeatherLink 5.5,2013-08-23 15:36:00,
2013-08-23 11:41:00,89.9,-99.9,30.02,East,90,1.0,9.0,0,0.00,,,-99.99,WeatherLink 5.5,2013-08-23 15:41:00,
2013-08-23 11:51:00,89.9,28.3,30.02,ESE,112,2.0,7.0,11,0.00,,,-99.99,WeatherLink 5.5,2013-08-23 15:51:00,
2013-08-23 12:00:00,90.4,47.6,30.00,East,90,2.0,8.0,23,0.00,,,-99.99,WeatherLink 5.5,2013-08-23 16:00:00,
2013-08-23 12:11:00,89.7,55.0,30.00,East,90,2.0,8.0,31,0.00,,,-99.99,WeatherLink 5.5,2013-08-23 16:11:00,
2013-08-23 12:20:00,89.8,58.5,30.00,East,90,3.0,10.0,35,0.00,,,-99.99,WeatherLink 5.5,2013-08-23 16:20:00,
2013-08-23 12:26:00,89.8,65.0,30.01,ESE,112,5.0,12.0,44,0.00,,,-99.99,WeatherLink 5.5,2013-08-23 16:26:00,
2013-08-23 12:36:00,88.2,68.4,30.01,East,90,6.0,10.0,52,0.00,,,-99.99,WeatherLink 5.5,2013-08-23 16:36:00,
2013-08-23 12:40:00,88.4,49.2,30.02,East,90,3.0,11.0,26,0.00,,,-99.99,WeatherLink 5.5,2013-08-23 16:40:00,
2013-08-23 12:45:00,89.1,51.7,30.01,ESE,112,5.0,10.0,28,0.00,,,-99.99,WeatherLink 5.5,2013-08-23 16:45:00,
2013-08-23 12:50:00,89.8,43.4,30.01,East,90,4.0,11.0,20,0.00,,,-99.99,WeatherLink 5.5,2013-08-23 16:50:00,
2013-08-23 12:55:00,90.5,47.6,30.03,ESE,112,3.0,9.0,23,0.00,,,-99.99,WeatherLink 5.5,2013-08-23 16:55:00,
2013-08-23 13:00:00,90.9,63.2,30.00,ESE,112,5.0,10.0,40,0.00,,,-99.99,WeatherLink 5.5,2013-08-23 17:00:00,
2013-08-23 13:05:00,91.0,61.1,29.99,ESE,112,2.0,9.0,37,0.00,,,-99.99,WeatherLink 5.5,2013-08-23 17:05:00,
2013-08-23 13:10:00,91.4,74.5,30.01,ESE,112,6.0,12.0,58,0.00,,,-99.99,WeatherLink 5.5,2013-08-23 17:10:00,
2013-08-23 13:15:00,91.2,74.9,30.01,East,90,4.0,11.0,59,0.00,,,-99.99,WeatherLink 5.5,2013-08-23 17:15:00,
2013-08-23 13:20:00,91.6,78.2,30.00,East,90,4.0,10.0,65,0.00,,,-99.99,WeatherLink 5.5,2013-08-23 17:20:00,
2013-08-23 13:25:00,91.8,66.1,30.00,East,90,6.0,11.0,43,0.00,,,-99.99,WeatherLink 5.5,2013-08-23 17:25:00,
2013-08-23 13:30:00,91.6,40.6,30.01,ESE,112,4.0,12.0,17,0.00,,,-99.99,WeatherLink 5.5,2013-08-23 17:30:00,
2013-08-23 13:35:00,91.7,91.7,30.01,East,90,5.0,10.0,100,0.00,,,-99.99,WeatherLink 5.5,2013-08-23 17:35:00,
2013-08-23 13:40:00,92.0,92.0,30.00,ESE,112,5.0,11.0,100,0.00,,,-99.99,WeatherLink 5.5,2013-08-23 17:40:00,
2013-08-23 13:45:00,91.9,91.9,30.00,East,90,7.0,12.0,100,0.00,,,-99.99,WeatherLink 5.5,2013-08-23 17:45:00,
2013-08-23 13:50:00,91.2,91.2,29.99,East,90,5.0,10.0,100,0.00,,,-99.99,WeatherLink 5.5,2013-08-23 17:50:00,
2013-08-23 13:55:00,91.2,91.2,29.99,East,90,5.0,11.0,100,0.00,,,-99.99,WeatherLink 5.5,2013-08-23 17:55:00,
2013-08-23 14:00:00,91.2,91.2,29.99,East,90,5.0,14.0,100,0.00,,,-99.99,WeatherLink 5.5,2013-08-23 18:00:00,
2013-08-23 14:05:00,91.2,91.2,29.99,ESE,112,6.0,13.0,100,0.00,,,-99.99,WeatherLink 5.5,2013-08-23 18:05:00,
2013-08-23 14:10:00,91.3,91.3,29.99,East,90,6.0,11.0,100,0.00,,,-99.99,WeatherLink 5.5,2013-08-23 18:10:00,
2013-08-23 14:15:00,91.5,91.5,29.99,East,90,6.0,11.0,100,0.00,,,-99.99,WeatherLink 5.5,2013-08-23 18:15:00,
2013-08-23 14:20:00,91.3,91.3,29.99,ESE,112,5.0,11.0,100,0.00,,,-99.99,WeatherLink 5.5,2013-08-23 18:20:00,
2013-08-23 14:25:00,91.4,91.4,29.99,ESE,112,5.0,11.0,100,0.00,,,-99.99,WeatherLink 5.5,2013-08-23 18:25:00,
2013-08-23 14:30:00,92.2,92.2,29.98,East,90,6.0,14.0,100,0.00,,,-99.99,WeatherLink 5.5,2013-08-23 18:30:00,
2013-08-23 14:35:00,92.2,92.2,29.98,East,90,4.0,10.0,100,0.00,,,-99.99,WeatherLink 5.5,2013-08-23 18:35:00,
2013-08-23 14:40:00,92.1,92.1,29.98,ENE,67,5.0,11.0,100,0.00,,,-99.99,WeatherLink 5.5,2013-08-23 18:40:00,
2013-08-23 14:45:00,91.4,91.4,29.98,ENE,67,5.0,11.0,100,0.00,,,-99.99,WeatherLink 5.5,2013-08-23 18:45:00,
2013-08-23 14:50:00,91.1,91.1,29.98,East,90,3.0,9.0,100,0.00,,,-99.99,WeatherLink 5.5,2013-08-23 18:50:00,
2013-08-23 14:55:00,91.1,91.1,29.98,East,90,2.0,8.0,100,0.00,,,-99.99,WeatherLink 5.5,2013-08-23 18:55:00,
2013-08-23 15:00:00,91.2,91.2,29.98,East,90,3.0,10.0,100,0.00,,,-99.99,WeatherLink 5.5,2013-08-23 19:00:00,
2013-08-23 15:05:00,90.8,90.8,29.98,ESE,112,3.0,11.0,100,0.00,,,-99.99,WeatherLink 5.5,2013-08-23 19:05:00,
2013-08-23 15:10:00,90.6,90.6,29.99,ESE,112,2.0,8.0,100,0.00,,,-99.99,WeatherLink 5.5,2013-08-23 19:10:00,
2013-08-23 15:15:00,90.4,90.4,29.99,ESE,112,3.0,10.0,100,0.00,,,-99.99,WeatherLink 5.5,2013-08-23 19:15:00,
2013-08-23 15:20:00,90.1,90.1,29.99,ESE,112,6.0,12.0,100,0.00,,,-99.99,WeatherLink 5.5,2013-08-23 19:20:00,
2013-08-23 15:25:00,89.4,89.4,29.98,ESE,112,4.0,9.0,100,0.00,,,-99.99,WeatherLink 5.5,2013-08-23 19:25:00,
2013-08-23 15:30:00,89.1,89.1,29.98,ESE,112,5.0,11.0,100,0.00,,,-99.99,WeatherLink 5.5,2013-08-23 19:30:00,
2013-08-23 15:35:00,89.0,89.0,29.98,ESE,112,4.0,10.0,100,0.00,,,-99.99,WeatherLink 5.5,2013-08-23 19:35:00,
2013-08-23 15:40:00,88.8,88.8,29.97,East,90,3.0,9.0,100,0.00,,,-99.99,WeatherLink 5.5,2013-08-23 19:40:00,
2013-08-23 15:45:00,88.5,88.5,29.97,East,90,5.0,12.0,100,0.00,,,-99.99,WeatherLink 5.5,2013-08-23 19:45:00,
2013-08-23 15:50:00,88.0,88.0,29.97,ESE,112,3.0,11.0,100,0.00,,,-99.99,WeatherLink 5.5,2013-08-23 19:50:00,
2013-08-23 15:55:00,87.7,87.7,29.97,SE,135,3.0,11.0,100,0.00,,,-99.99,WeatherLink 5.5,2013-08-23 19:55:00,
2013-08-23 16:06:00,87.1,87.1,29.98,SE,135,5.0,10.0,100,0.00,,,-99.99,WeatherLink 5.5,2013-08-23 20:06:00,
2013-08-23 16:16:00,86.1,86.1,29.97,ESE,112,2.0,9.0,100,0.00,,,-99.99,WeatherLink 5.5,2013-08-23 20:16:00,
2013-08-23 16:25:00,85.4,85.4,29.97,ESE,112,2.0,8.0,100,0.00,,,-99.99,WeatherLink 5.5,2013-08-23 20:25:00,
2013-08-23 16:35:00,85.7,85.7,29.98,ESE,112,2.0,8.0,100,0.00,,,-99.99,WeatherLink 5.5,2013-08-23 20:35:00,
2013-08-23 16:46:00,85.7,11.0,29.98,ESE,112,3.0,7.0,6,0.00,,,-99.99,WeatherLink 5.5,2013-08-23 20:46:00,
2013-08-23 16:50:00,85.6,43.5,29.99,East,90,3.0,8.0,23,0.00,,,-99.99,WeatherLink 5.5,2013-08-23 20:50:00,
2013-08-23 17:00:00,85.2,65.0,29.98,East,90,2.0,8.0,51,0.00,,,-99.99,WeatherLink 5.5,2013-08-23 21:00:00,
2013-08-23 17:05:00,85.0,68.1,29.98,ESE,112,4.0,8.0,57,0.00,,,-99.99,WeatherLink 5.5,2013-08-23 21:05:00,
2013-08-23 17:10:00,84.7,70.7,29.98,ESE,112,5.0,11.0,63,0.00,,,-99.99,WeatherLink 5.5,2013-08-23 21:10:00,
2013-08-23 17:15:00,84.4,72.2,29.98,East,90,3.0,10.0,67,0.00,,,-99.99,WeatherLink 5.5,2013-08-23 21:15:00,
2013-08-23 17:20:00,84.4,74.0,29.98,ESE,112,1.0,7.0,71,0.00,,,-99.99,WeatherLink 5.5,2013-08-23 21:20:00,
2013-08-23 17:30:00,84.7,76.3,29.99,ESE,112,1.0,8.0,76,0.00,,,-99.99,WeatherLink 5.5,2013-08-23 21:30:00,
2013-08-23 17:35:00,84.6,75.8,29.99,ESE,112,4.0,9.0,75,0.00,,,-99.99,WeatherLink 5.5,2013-08-23 21:35:00,
2013-08-23 17:40:00,84.5,74.9,29.99,East,90,1.0,5.0,73,0.00,,,-99.99,WeatherLink 5.5,2013-08-23 21:40:00,
2013-08-23 17:46:00,84.5,74.5,29.99,ESE,112,1.0,7.0,72,0.00,,,-99.99,WeatherLink 5.5,2013-08-23 21:46:00,
2013-08-23 17:51:00,84.5,74.5,29.99,ESE,112,0.0,3.0,72,0.00,,,-99.99,WeatherLink 5.5,2013-08-23 21:51:00,
2013-08-23 18:01:00,84.5,72.8,29.98,North,-999,0.0,1.0,68,0.00,,,-99.99,WeatherLink 5.5,2013-08-23 22:01:00,
2013-08-23 18:10:00,84.6,72.4,29.98,East,90,1.0,5.0,67,0.00,,,-99.99,WeatherLink 5.5,2013-08-23 22:10:00,
2013-08-23 18:15:00,84.6,72.4,29.98,East,90,0.0,4.0,67,0.00,,,-99.99,WeatherLink 5.5,2013-08-23 22:15:00,
2013-08-23 18:20:00,84.6,72.9,29.98,East,90,0.0,5.0,68,0.00,,,-99.99,WeatherLink 5.5,2013-08-23 22:20:00,
2013-08-23 18:25:00,84.6,73.3,29.99,East,90,1.0,5.0,69,0.00,,,-99.99,WeatherLink 5.5,2013-08-23 22:25:00,
2013-08-23 18:31:00,84.5,73.6,29.99,ESE,112,0.0,4.0,70,0.00,,,-99.99,WeatherLink 5.5,2013-08-23 22:31:00,
2013-08-23 18:36:00,84.4,75.2,29.99,ESE,112,0.0,4.0,74,0.00,,,-99.99,WeatherLink 5.5,2013-08-23 22:36:00,
2013-08-23 18:46:00,84.3,77.8,29.99,ESE,112,0.0,1.0,81,0.00,,,-99.99,WeatherLink 5.5,2013-08-23 22:46:00,
2013-08-23 18:56:00,84.2,77.7,29.99,North,-999,0.0,0.0,81,0.00,,,-99.99,WeatherLink 5.5,2013-08-23 22:56:00,
2013-08-23 19:01:00,84.1,76.9,30.00,ESE,112,0.0,1.0,79,0.00,,,-99.99,WeatherLink 5.5,2013-08-23 23:01:00,
2013-08-23 19:06:00,84.1,76.5,29.99,North,-999,0.0,0.0,78,0.00,,,-99.99,WeatherLink 5.5,2013-08-23 23:06:00,
2013-08-23 19:11:00,84.1,76.1,30.00,North,-999,0.0,1.0,77,0.00,,,-99.99,WeatherLink 5.5,2013-08-23 23:11:00,
2013-08-23 19:16:00,84.0,75.2,30.00,ESE,112,0.0,1.0,75,0.00,,,-99.99,WeatherLink 5.5,2013-08-23 23:16:00,
2013-08-23 19:21:00,83.9,74.3,30.00,ESE,112,0.0,2.0,73,0.00,,,-99.99,WeatherLink 5.5,2013-08-23 23:21:00,
2013-08-23 19:26:00,83.9,73.9,30.00,North,-999,0.0,1.0,72,0.00,,,-99.99,WeatherLink 5.5,2013-08-23 23:26:00,
2013-08-23 19:31:00,83.9,73.9,30.00,North,-999,0.0,0.0,72,0.00,,,-99.99,WeatherLink 5.5,2013-08-23 23:31:00,
2013-08-23 19:40:00,83.6,71.9,30.00,North,-999,0.0,0.0,68,0.00,,,-99.99,WeatherLink 5.5,2013-08-23 23:40:00,
2013-08-23 19:45:00,83.5,71.4,30.00,ESE,112,0.0,1.0,67,0.00,,,-99.99,WeatherLink 5.5,2013-08-23 23:45:00,
2013-08-23 19:50:00,83.4,70.4,30.00,ESE,112,0.0,2.0,65,0.00,,,-99.99,WeatherLink 5.5,2013-08-23 23:50:00,
2013-08-23 20:01:00,83.2,67.9,30.00,ESE,112,0.0,1.0,60,0.00,,,-99.99,WeatherLink 5.5,2013-08-24 00:01:00,
2013-08-23 20:10:00,83.0,64.1,30.00,North,-999,0.0,0.0,53,0.00,,,-99.99,WeatherLink 5.5,2013-08-24 00:10:00,
2013-08-23 20:15:00,82.8,62.3,30.00,ESE,112,0.0,1.0,50,0.00,,,-99.99,WeatherLink 5.5,2013-08-24 00:15:00,
2013-08-23 20:25:00,82.7,55.9,30.01,ESE,112,0.0,1.0,40,0.00,,,-99.99,WeatherLink 5.5,2013-08-24 00:25:00,
2013-08-23 20:36:00,82.6,50.6,30.01,ESE,112,0.0,1.0,33,0.00,,,-99.99,WeatherLink 5.5,2013-08-24 00:36:00,
2013-08-23 20:41:00,82.4,44.1,30.01,ESE,112,0.0,2.0,26,0.00,,,-99.99,WeatherLink 5.5,2013-08-24 00:41:00,
2013-08-23 20:50:00,82.5,37.4,30.02,ESE,112,0.0,2.0,20,0.00,,,-99.99,WeatherLink 5.5,2013-08-24 00:50:00,
2013-08-23 21:00:00,82.4,28.4,30.02,North,-999,0.0,0.0,14,0.00,,,-99.99,WeatherLink 5.5,2013-08-24 01:00:00,
2013-08-23 21:05:00,82.3,22.5,30.02,ESE,112,0.0,2.0,11,0.00,,,-99.99,WeatherLink 5.5,2013-08-24 01:05:00,
2013-08-23 21:10:00,82.3,17.8,30.02,North,-999,0.0,0.0,9,0.00,,,-99.99,WeatherLink 5.5,2013-08-24 01:10:00,
2013-08-23 21:16:00,82.2,12.0,30.02,ESE,112,0.0,1.0,7,0.00,,,-99.99,WeatherLink 5.5,2013-08-24 01:16:00,
2013-08-23 21:21:00,82.0,-0.5,30.03,ESE,112,0.0,2.0,4,0.00,,,-99.99,WeatherLink 5.5,2013-08-24 01:21:00,
2013-08-23 21:30:00,81.8,-99.9,30.02,North,-999,0.0,0.0,-999,0.00,,,-99.99,WeatherLink 5.5,2013-08-24 01:30:00,
2013-08-23 21:35:00,81.7,-99.9,30.02,North,-999,0.0,0.0,-999,0.00,,,-99.99,WeatherLink 5.5,2013-08-24 01:35:00,
2013-08-23 21:45:00,81.5,-99.9,30.03,North,-999,0.0,0.0,0,0.00,,,-99.99,WeatherLink 5.5,2013-08-24 01:45:00,
2013-08-23 21:55:00,81.7,81.7,30.04,ESE,112,0.0,3.0,100,0.00,,,-99.99,WeatherLink 5.5,2013-08-24 01:55:00,
2013-08-23 22:01:00,81.8,81.8,30.03,North,-999,0.0,0.0,100,0.00,,,-99.99,WeatherLink 5.5,2013-08-24 02:01:00,
2013-08-23 22:10:00,81.8,81.8,30.03,North,-999,0.0,0.0,100,0.00,,,-99.99,WeatherLink 5.5,2013-08-24 02:10:00,
2013-08-23 22:20:00,81.7,-99.9,30.03,North,-999,0.0,0.0,-999,0.00,,,-99.99,WeatherLink 5.5,2013-08-24 02:20:00,
2013-08-23 22:26:00,81.7,81.7,30.03,North,-999,0.0,0.0,100,0.00,,,-99.99,WeatherLink 5.5,2013-08-24 02:26:00,
2013-08-23 22:31:00,81.7,-99.9,30.03,North,-999,0.0,0.0,-999,0.00,,,-99.99,WeatherLink 5.5,2013-08-24 02:31:00,
2013-08-23 22:40:00,81.6,-99.9,30.03,North,-999,0.0,0.0,-999,0.00,,,-99.99,WeatherLink 5.5,2013-08-24 02:40:00,
2013-08-23 22:50:00,81.5,81.5,30.03,ESE,112,0.0,1.0,100,0.00,,,-99.99,WeatherLink 5.5,2013-08-24 02:50:00,
2013-08-23 22:56:00,81.6,-99.9,30.03,ESE,112,0.0,2.0,-999,0.00,,,-99.99,WeatherLink 5.5,2013-08-24 02:56:00,
2013-08-23 23:05:00,81.6,81.6,30.02,ESE,112,0.0,2.0,100,0.00,,,-99.99,WeatherLink 5.5,2013-08-24 03:05:00,
2013-08-23 23:10:00,81.6,81.6,30.03,ESE,112,0.0,2.0,100,0.00,,,-99.99,WeatherLink 5.5,2013-08-24 03:10:00,
2013-08-23 23:20:00,81.5,-99.9,30.02,North,-999,0.0,1.0,-999,0.00,,,-99.99,WeatherLink 5.5,2013-08-24 03:20:00,
2013-08-23 23:31:00,81.4,-99.9,30.03,ESE,112,0.0,2.0,-999,0.00,,,-99.99,WeatherLink 5.5,2013-08-24 03:31:00,
2013-08-23 23:40:00,81.3,81.3,30.02,ESE,112,0.0,3.0,100,0.00,,,-99.99,WeatherLink 5.5,2013-08-24 03:40:00,
2013-08-23 23:51:00,81.2,-99.9,30.02,North,-999,0.0,0.0,-999,0.00,,,-99.99,WeatherLink 5.5,2013-08-24 03:51:00,